Time;durP1;ratioP1;P1;durP2;ratioP2;P2;SDS_P1;SDS_P2;PMS_P1;PMS_P2;Temp;Humidity;BMP_temperature;BMP_pressure;BME280_temperature;BME280_humidity;BME280_pressure;Samples;Min_cycle;Max_cycle;Signal;HPM_P1;HPM_P2
2021/12/17 00:01:16;;;;;;;1.27;0.83;;;4.90;99.90;;;;;;5062941;28;20687;-94
2021/12/17 00:03:49;;;;;;;3.57;0.97;;;4.90;99.90;;;;;;5060103;28;20216;-93
2021/12/17 00:06:42;;;;;;;2.50;0.80;;;4.80;99.90;;;;;;5066898;28;20190;-93
2021/12/17 00:09:13;;;;;;;1.40;0.90;;;4.70;99.90;;;;;;5070596;28;20231;-93
2021/12/17 00:11:44;;;;;;;0.53;0.53;;;4.70;99.90;;;;;;5076909;28;20200;-94
2021/12/17 00:14:23;;;;;;;0.67;0.47;;;4.70;99.90;;;;;;5076121;28;20203;-93
2021/12/17 00:17:00;;;;;;;0.60;0.53;;;4.70;99.90;;;;;;5067797;28;20208;-95
2021/12/17 00:19:48;;;;;;;1.13;0.57;;;4.70;99.90;;;;;;5068980;28;20303;-95
2021/12/17 00:51:03;;;;;;;1.60;0.90;;;4.50;99.90;;;;;;5058678;28;20232;-94
2021/12/17 00:53:34;;;;;;;1.30;1.20;;;4.40;99.90;;;;;;5058324;28;20215;-93
2021/12/17 00:56:06;;;;;;;1.33;0.87;;;4.50;99.90;;;;;;5057652;28;20247;-93
2021/12/17 00:58:37;;;;;;;0.90;0.80;;;4.50;99.90;;;;;;5058105;28;20217;-93
2021/12/17 01:01:08;;;;;;;1.33;0.90;;;4.40;99.90;;;;;;5059961;28;20726;-94
2021/12/17 01:03:40;;;;;;;1.60;0.93;;;4.50;99.90;;;;;;5056944;28;20240;-95
2021/12/17 01:06:13;;;;;;;1.47;1.07;;;4.50;99.90;;;;;;5057282;28;20240;-95
2021/12/17 01:08:45;;;;;;;2.07;1.00;;;4.50;99.90;;;;;;5061068;28;20215;-95
2021/12/17 01:11:16;;;;;;;1.50;1.10;;;4.50;99.90;;;;;;5060234;28;20271;-94
2021/12/17 01:13:48;;;;;;;2.60;1.07;;;4.40;99.90;;;;;;5057913;28;20216;-93
2021/12/17 01:16:19;;;;;;;1.40;0.90;;;4.40;99.90;;;;;;5056699;28;20213;-93
2021/12/17 01:19:00;;;;;;;1.83;0.80;;;4.50;99.90;;;;;;5057041;28;20238;-94
2021/12/17 01:21:42;;;;;;;0.93;0.70;;;4.50;99.90;;;;;;5057242;28;20200;-93
2021/12/17 01:24:34;;;;;;;1.57;1.40;;;4.40;99.90;;;;;;5057944;28;20223;-94
2021/12/17 01:35:29;;;;;;;0.97;0.70;;;4.50;99.90;;;;;;5057052;28;20215;-95
2021/12/17 01:43:52;;;;;;;2.40;0.70;;;4.40;99.90;;;;;;5057269;28;20250;-94
2021/12/17 01:46:27;;;;;;;2.03;0.80;;;4.40;99.90;;;;;;5056939;28;20239;-95
2021/12/17 01:49:07;;;;;;;0.70;0.70;;;4.40;99.90;;;;;;5057335;28;20265;-93
2021/12/17 02:00:10;;;;;;;2.33;1.97;;;4.30;99.90;;;;;;5057472;28;20208;-94
2021/12/17 02:02:45;;;;;;;2.67;1.57;;;4.30;99.90;;;;;;5061414;28;20591;-93
2021/12/17 02:05:16;;;;;;;1.97;1.77;;;4.30;99.90;;;;;;5062785;28;20233;-94
2021/12/17 02:07:50;;;;;;;2.50;2.03;;;4.30;99.90;;;;;;5060744;28;20215;-93
2021/12/17 02:30:05;;;;;;;3.60;2.77;;;4.20;99.90;;;;;;5076251;28;20228;-92
2021/12/17 02:32:38;;;;;;;3.43;2.70;;;4.20;99.90;;;;;;5068930;28;20204;-92
2021/12/17 02:38:03;;;;;;;2.77;2.10;;;4.20;99.90;;;;;;5059909;28;20212;-94
2021/12/17 02:46:09;;;;;;;2.03;1.83;;;4.30;99.90;;;;;;5033195;28;20295;-94
2021/12/17 02:48:43;;;;;;;3.47;2.13;;;4.30;99.90;;;;;;5063300;28;20208;-95
2021/12/17 02:51:15;;;;;;;6.87;4.87;;;4.30;99.90;;;;;;5062253;28;20700;-95
2021/12/17 02:53:48;;;;;;;6.27;4.77;;;4.20;99.90;;;;;;5061503;28;20205;-94
2021/12/17 02:56:19;;;;;;;3.20;2.30;;;4.20;99.90;;;;;;5060971;28;20246;-94
2021/12/17 02:58:51;;;;;;;2.70;1.60;;;4.30;99.90;;;;;;5063277;28;20287;-93
2021/12/17 03:01:22;;;;;;;2.40;1.83;;;4.30;99.90;;;;;;5062681;28;20208;-94
2021/12/17 03:03:55;;;;;;;3.90;1.77;;;4.30;99.90;;;;;;5061129;28;20267;-95
2021/12/17 03:06:26;;;;;;;2.10;1.60;;;4.30;99.90;;;;;;5060489;28;20208;-93
2021/12/17 03:09:00;;;;;;;1.90;1.50;;;4.30;99.90;;;;;;5061133;28;20637;-94
2021/12/17 03:11:31;;;;;;;5.27;4.10;;;4.20;99.90;;;;;;5058630;28;20290;-94
2021/12/17 03:14:03;;;;;;;5.43;4.20;;;4.20;99.90;;;;;;5062670;28;20201;-94
2021/12/17 03:16:40;;;;;;;3.33;2.60;;;4.10;99.90;;;;;;5061601;28;20744;-95
2021/12/17 03:19:24;;;;;;;3.90;2.70;;;4.20;99.90;;;;;;5059858;28;20254;-94
2021/12/17 03:24:57;;;;;;;3.77;2.60;;;4.10;99.90;;;;;;5000091;28;20289;-93
2021/12/17 03:27:38;;;;;;;3.00;2.50;;;4.00;99.90;;;;;;5049201;28;20200;-93
2021/12/17 03:30:11;;;;;;;3.40;3.10;;;4.00;99.90;;;;;;5060607;28;20757;-94
2021/12/17 03:32:42;;;;;;;3.03;2.83;;;4.00;99.90;;;;;;5059648;28;20288;-94
2021/12/17 03:35:13;;;;;;;3.23;2.67;;;4.00;99.90;;;;;;5059943;28;20607;-94
2021/12/17 03:37:45;;;;;;;2.93;2.63;;;4.00;99.90;;;;;;5059706;28;20247;-94
2021/12/17 03:40:19;;;;;;;2.87;2.67;;;4.00;99.90;;;;;;5060449;28;20230;-94
2021/12/17 03:42:51;;;;;;;2.37;2.17;;;4.00;99.90;;;;;;5060060;28;20204;-94
2021/12/17 03:45:22;;;;;;;3.07;2.17;;;4.00;99.90;;;;;;5060362;28;20695;-94
2021/12/17 03:47:54;;;;;;;3.87;3.20;;;4.00;99.90;;;;;;5059526;28;20665;-95
2021/12/17 03:50:26;;;;;;;3.67;3.23;;;4.00;99.90;;;;;;5060202;28;20267;-93
2021/12/17 03:52:57;;;;;;;4.53;4.13;;;3.90;99.90;;;;;;5059674;28;20205;-94
2021/12/17 03:55:31;;;;;;;3.50;3.20;;;3.90;99.90;;;;;;5059982;28;20727;-94
2021/12/17 03:58:02;;;;;;;4.70;3.60;;;3.90;99.90;;;;;;5060606;28;20310;-93
2021/12/17 04:00:33;;;;;;;3.33;3.03;;;3.90;99.90;;;;;;5060315;28;20639;-94
2021/12/17 04:03:04;;;;;;;3.97;3.23;;;3.90;99.90;;;;;;5062653;28;20216;-95
2021/12/17 04:05:36;;;;;;;3.23;3.03;;;3.90;99.90;;;;;;5061599;28;20215;-94
2021/12/17 04:08:08;;;;;;;3.93;3.30;;;3.90;99.90;;;;;;5057535;28;20509;-95
2021/12/17 04:10:45;;;;;;;3.87;3.47;;;3.90;99.90;;;;;;5059125;28;20315;-93
2021/12/17 04:16:03;;;;;;;4.93;4.33;;;3.80;99.90;;;;;;5059230;28;20204;-94
2021/12/17 04:18:35;;;;;;;3.90;3.53;;;3.80;99.90;;;;;;5059092;28;20259;-93
2021/12/17 04:21:13;;;;;;;4.37;3.90;;;3.70;99.90;;;;;;5060308;28;20573;-93
2021/12/17 04:23:45;;;;;;;5.30;4.20;;;3.70;99.90;;;;;;5058672;28;20211;-93
2021/12/17 04:26:21;;;;;;;6.53;5.77;;;3.70;99.90;;;;;;5044969;28;20211;-93
2021/12/17 04:28:53;;;;;;;7.83;5.07;;;3.60;99.90;;;;;;5063589;28;20238;-94
2021/12/17 04:31:28;;;;;;;9.30;6.00;;;3.50;99.90;;;;;;5060765;28;20331;-94
2021/12/17 04:34:00;;;;;;;6.23;5.40;;;3.40;99.90;;;;;;5063108;28;20212;-93
2021/12/17 04:36:34;;;;;;;8.27;6.07;;;3.30;99.90;;;;;;5061051;28;20230;-95
2021/12/17 04:39:05;;;;;;;6.67;6.00;;;3.30;99.90;;;;;;5068998;28;20220;-95
2021/12/17 04:41:45;;;;;;;6.00;5.30;;;3.30;99.90;;;;;;5075814;28;20216;-96
2021/12/17 04:44:21;;;;;;;8.10;5.70;;;3.30;99.90;;;;;;5075237;28;20208;-94
2021/12/17 04:47:01;;;;;;;5.93;5.30;;;3.30;99.90;;;;;;5071808;28;20218;-95
2021/12/17 04:58:00;;;;;;;8.10;6.77;;;3.00;99.90;;;;;;5058782;28;20284;-94
2021/12/17 05:00:31;;;;;;;8.43;7.03;;;2.90;99.90;;;;;;5058509;28;20558;-90
2021/12/17 05:03:02;;;;;;;9.17;7.63;;;2.90;99.90;;;;;;5060447;28;20236;-94
2021/12/17 05:05:35;;;;;;;10.33;8.30;;;2.90;99.90;;;;;;5058283;28;20222;-95
2021/12/17 05:08:11;;;;;;;9.53;7.20;;;2.80;99.90;;;;;;5057650;28;20260;-94
2021/12/17 05:11:02;;;;;;;8.90;7.50;;;2.70;99.90;;;;;;5057473;28;20263;-94
2021/12/17 05:19:19;;;;;;;8.27;6.40;;;2.60;99.90;;;;;;5062081;28;20290;-95
2021/12/17 05:21:49;;;;;;;8.07;6.23;;;2.50;99.90;;;;;;5057650;28;20258;-95
2021/12/17 05:24:21;;;;;;;8.20;6.23;;;2.50;99.90;;;;;;5058617;28;20227;-95
2021/12/17 05:26:52;;;;;;;8.03;6.10;;;2.50;99.90;;;;;;5057076;28;20204;-94
2021/12/17 05:29:26;;;;;;;7.10;6.20;;;2.40;99.90;;;;;;5056868;28;20318;-95
2021/12/17 05:31:57;;;;;;;7.80;6.23;;;2.40;99.90;;;;;;5057361;28;20268;-94
2021/12/17 05:34:28;;;;;;;7.83;6.60;;;2.40;99.90;;;;;;5057719;28;20208;-93
2021/12/17 05:37:00;;;;;;;9.57;7.30;;;2.30;99.90;;;;;;5060846;28;20629;-94
2021/12/17 05:39:33;;;;;;;11.20;7.80;;;2.20;99.90;;;;;;5061554;28;20310;-95
2021/12/17 05:42:04;;;;;;;8.93;7.37;;;2.20;99.90;;;;;;5061379;28;20201;-95
2021/12/17 05:44:37;;;;;;;9.37;7.67;;;2.20;99.90;;;;;;5061822;28;20223;-95
2021/12/17 05:47:09;;;;;;;9.20;7.63;;;2.20;99.90;;;;;;5060914;28;20356;-95
2021/12/17 05:49:40;;;;;;;9.37;7.87;;;2.10;99.90;;;;;;5044534;28;20235;-95
2021/12/17 05:52:13;;;;;;;11.03;8.17;;;2.10;99.90;;;;;;5062456;28;20650;-94
2021/12/17 05:54:44;;;;;;;10.07;8.50;;;2.00;99.90;;;;;;5063508;28;20228;-95
2021/12/17 05:57:16;;;;;;;12.73;8.97;;;2.00;99.90;;;;;;5061546;28;20200;-95
2021/12/17 05:59:51;;;;;;;14.67;10.50;;;2.00;99.90;;;;;;5062972;28;20216;-96
2021/12/17 06:02:23;;;;;;;15.27;11.23;;;2.00;99.90;;;;;;5061243;28;20245;-96
2021/12/17 06:04:57;;;;;;;20.80;14.73;;;2.00;99.90;;;;;;5065323;28;20255;-95
2021/12/17 06:07:30;;;;;;;23.30;13.97;;;2.00;99.90;;;;;;5060138;28;20231;-95
2021/12/17 06:10:04;;;;;;;17.93;13.80;;;2.00;99.90;;;;;;5063784;28;20281;-94
2021/12/17 06:12:35;;;;;;;16.67;11.97;;;2.00;99.90;;;;;;5065490;28;20232;-95
2021/12/17 06:15:10;;;;;;;17.20;11.60;;;2.10;99.90;;;;;;5060468;28;20214;-95
2021/12/17 06:17:41;;;;;;;14.43;10.93;;;2.20;99.90;;;;;;5060280;28;20228;-93
2021/12/17 06:20:15;;;;;;;17.33;12.27;;;2.30;99.90;;;;;;5061351;28;20627;-94
2021/12/17 06:22:46;;;;;;;17.50;12.30;;;2.30;99.90;;;;;;5060803;28;20243;-93
2021/12/17 06:25:18;;;;;;;14.30;10.47;;;2.40;99.90;;;;;;5061860;28;20287;-94
2021/12/17 06:27:50;;;;;;;13.80;11.53;;;2.40;99.90;;;;;;5061457;28;20572;-95
2021/12/17 06:30:24;;;;;;;12.53;10.87;;;2.40;99.90;;;;;;5062659;28;20204;-94
2021/12/17 06:32:56;;;;;;;15.73;12.13;;;2.50;99.90;;;;;;5056502;28;20229;-95
2021/12/17 06:35:27;;;;;;;16.93;10.97;;;2.50;99.90;;;;;;5058651;28;20216;-94
2021/12/17 06:37:58;;;;;;;13.30;9.80;;;2.50;99.90;;;;;;5040506;28;20288;-95
2021/12/17 06:40:30;;;;;;;13.23;10.07;;;2.60;99.90;;;;;;5039684;28;20724;-95
2021/12/17 06:43:01;;;;;;;12.70;10.03;;;2.50;99.90;;;;;;5041958;28;20209;-95
2021/12/17 06:45:48;;;;;;;11.20;9.43;;;2.60;99.90;;;;;;5040372;28;20240;-94
2021/12/17 06:48:24;;;;;;;13.40;9.57;;;2.60;99.90;;;;;;5038740;28;20271;-94
2021/12/17 06:59:39;;;;;;;13.43;9.67;;;2.60;99.90;;;;;;5041400;28;20213;-95
2021/12/17 07:10:44;;;;;;;14.37;10.53;;;2.70;99.90;;;;;;5058891;28;20216;-94
2021/12/17 07:22:03;;;;;;;16.13;10.73;;;2.80;99.90;;;;;;5060580;28;20304;-93
2021/12/17 07:32:52;;;;;;;11.33;8.70;;;2.90;99.90;;;;;;5058702;28;20262;-94
2021/12/17 07:40:52;;;;;;;13.70;8.13;;;2.80;99.90;;;;;;5058167;28;20246;-94
2021/12/17 07:43:27;;;;;;;9.63;7.23;;;2.80;99.90;;;;;;5059385;28;20619;-93
2021/12/17 07:45:59;;;;;;;10.33;7.27;;;2.80;99.90;;;;;;5058080;28;20274;-96
2021/12/17 07:48:31;;;;;;;10.43;7.43;;;2.80;99.90;;;;;;5058585;28;20627;-94
2021/12/17 07:51:07;;;;;;;10.20;7.17;;;2.80;99.90;;;;;;5058930;28;20264;-94
2021/12/17 07:53:42;;;;;;;10.13;6.60;;;2.80;99.90;;;;;;5057719;28;20271;-94
2021/12/17 07:56:16;;;;;;;9.83;6.67;;;2.80;99.90;;;;;;5057839;28;20204;-94
2021/12/17 07:58:48;;;;;;;8.60;6.67;;;2.80;99.90;;;;;;5059383;28;20298;-93
2021/12/17 08:01:20;;;;;;;10.07;6.27;;;2.80;99.90;;;;;;5059741;28;20212;-94
2021/12/17 08:03:52;;;;;;;8.13;6.37;;;2.70;99.90;;;;;;5060202;28;20224;-92
2021/12/17 08:06:26;;;;;;;8.97;7.03;;;2.70;99.90;;;;;;5058832;28;20208;-94
2021/12/17 08:08:57;;;;;;;10.07;7.20;;;2.70;99.90;;;;;;5059572;28;20615;-94
2021/12/17 08:11:31;;;;;;;10.03;6.90;;;2.70;99.90;;;;;;5061250;28;20220;-94
2021/12/17 08:14:06;;;;;;;11.73;7.10;;;2.70;99.90;;;;;;5060799;28;20257;-94
2021/12/17 08:16:43;;;;;;;10.60;7.63;;;2.60;99.90;;;;;;5058514;28;20207;-94
2021/12/17 08:24:58;;;;;;;9.77;7.17;;;2.60;99.90;;;;;;5039222;28;20276;-94
2021/12/17 08:27:45;;;;;;;10.90;7.67;;;2.60;99.90;;;;;;5038693;28;20201;-94
2021/12/17 08:30:28;;;;;;;10.63;7.77;;;2.60;99.90;;;;;;5051210;28;20197;-94
2021/12/17 08:32:59;;;;;;;9.67;7.63;;;2.60;99.90;;;;;;5055151;28;20229;-93
2021/12/17 08:35:31;;;;;;;12.97;7.80;;;2.60;99.90;;;;;;5054149;28;20197;-94
2021/12/17 08:38:05;;;;;;;9.97;7.57;;;2.50;99.90;;;;;;5056163;28;20211;-94
2021/12/17 08:40:36;;;;;;;10.13;7.63;;;2.60;99.90;;;;;;5056031;28;20191;-94
2021/12/17 08:43:08;;;;;;;11.30;8.20;;;2.60;99.90;;;;;;5055166;28;20193;-93
2021/12/17 08:45:39;;;;;;;10.73;8.27;;;2.60;99.90;;;;;;5056354;28;20216;-91
2021/12/17 08:48:11;;;;;;;10.53;8.10;;;2.70;99.90;;;;;;5054427;28;20188;-94
2021/12/17 08:50:41;;;;;;;12.17;8.93;;;2.70;99.90;;;;;;5056430;28;20215;-93
2021/12/17 08:53:14;;;;;;;11.23;7.90;;;2.70;99.90;;;;;;5054507;28;20422;-94
2021/12/17 08:55:46;;;;;;;11.53;8.27;;;2.70;99.90;;;;;;5044530;28;20201;-95
2021/12/17 08:58:17;;;;;;;10.90;7.83;;;2.70;99.90;;;;;;5044871;28;20205;-94
2021/12/17 09:00:49;;;;;;;12.20;8.93;;;2.70;99.90;;;;;;5041271;28;20259;-94
2021/12/17 09:03:20;;;;;;;9.97;7.80;;;2.70;99.90;;;;;;5044544;28;20599;-95
2021/12/17 09:05:52;;;;;;;9.07;6.93;;;2.80;99.90;;;;;;5041390;28;20205;-95
2021/12/17 09:08:25;;;;;;;9.50;7.10;;;2.70;99.90;;;;;;5041237;28;20243;-94
2021/12/17 09:10:57;;;;;;;8.17;6.80;;;2.70;99.90;;;;;;5041421;28;20344;-94
2021/12/17 09:13:29;;;;;;;7.77;6.03;;;2.70;99.90;;;;;;5042208;28;20256;-95
2021/12/17 09:16:06;;;;;;;8.57;6.23;;;2.70;99.90;;;;;;5043555;28;20549;-96
2021/12/17 09:18:38;;;;;;;8.47;5.33;;;2.70;99.90;;;;;;5058784;28;20195;-95
2021/12/17 09:21:10;;;;;;;7.77;6.00;;;2.70;99.90;;;;;;5055856;28;20200;-96
2021/12/17 09:23:47;;;;;;;6.83;5.33;;;2.70;99.90;;;;;;5051825;28;20694;-94
2021/12/17 09:26:19;;;;;;;7.93;5.73;;;2.70;99.90;;;;;;5058143;28;20279;-94
2021/12/17 09:28:50;;;;;;;6.00;5.30;;;2.70;99.90;;;;;;5063380;28;20227;-94
2021/12/17 09:31:21;;;;;;;7.67;5.77;;;2.70;99.90;;;;;;5082583;22;20240;-94
2021/12/17 09:33:54;;;;;;;6.90;4.90;;;2.60;99.90;;;;;;5039070;28;20229;-94
2021/12/17 09:36:26;;;;;;;6.63;5.13;;;2.70;99.90;;;;;;5038792;28;20229;-94
2021/12/17 09:38:59;;;;;;;6.97;5.40;;;2.70;99.90;;;;;;5038555;28;20666;-95
2021/12/17 09:41:30;;;;;;;6.57;5.30;;;2.70;99.90;;;;;;5038386;28;20247;-95
2021/12/17 09:44:01;;;;;;;6.87;5.20;;;2.70;99.90;;;;;;5038409;28;20208;-94
2021/12/17 09:46:32;;;;;;;7.03;4.90;;;2.70;99.90;;;;;;5036762;28;20284;-93
2021/12/17 09:49:03;;;;;;;6.00;5.07;;;2.70;99.90;;;;;;5037905;28;20244;-94
2021/12/17 09:51:34;;;;;;;6.03;4.90;;;2.70;99.90;;;;;;5038497;28;20205;-95
2021/12/17 09:54:08;;;;;;;6.07;4.90;;;2.70;99.90;;;;;;5039050;28;20244;-94
2021/12/17 09:56:39;;;;;;;6.13;4.50;;;2.70;99.90;;;;;;5038174;28;20201;-94
2021/12/17 09:59:10;;;;;;;6.07;4.53;;;2.70;99.90;;;;;;5038591;28;20205;-94
2021/12/17 10:01:42;;;;;;;6.00;4.33;;;2.70;99.90;;;;;;5041163;28;20280;-94
2021/12/17 10:04:18;;;;;;;6.97;5.10;;;2.80;99.90;;;;;;5041429;28;20653;-92
2021/12/17 10:06:51;;;;;;;9.83;5.37;;;2.80;99.90;;;;;;5047336;28;20208;-92
2021/12/17 10:09:35;;;;;;;14.23;5.90;;;2.70;99.90;;;;;;5041606;28;20247;-94
2021/12/17 10:12:09;;;;;;;8.80;5.40;;;2.70;99.90;;;;;;5044535;28;20235;-93
2021/12/17 10:14:41;;;;;;;8.13;5.70;;;2.70;99.90;;;;;;5042603;28;20233;-94
2021/12/17 10:17:14;;;;;;;9.57;5.63;;;2.70;99.90;;;;;;5040169;28;20655;-92
2021/12/17 10:19:49;;;;;;;8.37;5.53;;;2.80;99.90;;;;;;5039445;28;20332;-93
2021/12/17 10:22:21;;;;;;;10.33;5.80;;;2.80;99.90;;;;;;5041358;28;20211;-94
2021/12/17 10:25:04;;;;;;;8.40;5.47;;;2.80;99.90;;;;;;5041775;28;20251;-94
2021/12/17 10:27:36;;;;;;;6.37;4.43;;;2.80;99.90;;;;;;5040961;28;20204;-94
2021/12/17 10:30:17;;;;;;;7.73;4.87;;;2.80;99.90;;;;;;5041398;28;20237;-94
2021/12/17 10:32:50;;;;;;;6.40;4.43;;;2.80;99.90;;;;;;5040279;28;20216;-93
2021/12/17 10:35:23;;;;;;;6.67;4.70;;;2.80;99.90;;;;;;5040208;28;20693;-92
2021/12/17 10:37:57;;;;;;;6.03;4.63;;;2.80;99.90;;;;;;5039016;28;20251;-93
2021/12/17 10:40:32;;;;;;;6.07;4.73;;;2.70;99.90;;;;;;5039659;28;20235;-93
2021/12/17 10:43:15;;;;;;;6.20;4.77;;;2.70;99.90;;;;;;5038954;28;20302;-94
2021/12/17 10:45:59;;;;;;;6.73;4.73;;;2.70;99.90;;;;;;5039358;28;20240;-94
2021/12/17 10:48:37;;;;;;;6.43;4.43;;;2.70;99.90;;;;;;5039504;28;20529;-94
2021/12/17 10:51:42;;;;;;;7.20;4.80;;;2.70;99.90;;;;;;5039081;28;20236;-94
2021/12/17 10:54:15;;;;;;;6.87;4.77;;;2.70;99.90;;;;;;5039578;28;20268;-93
2021/12/17 10:56:52;;;;;;;7.70;5.33;;;2.70;99.90;;;;;;5038601;28;20347;-90
2021/12/17 10:59:25;;;;;;;6.73;4.90;;;2.70;99.90;;;;;;5039269;28;20590;-93
2021/12/17 11:02:00;;;;;;;6.83;5.33;;;2.70;99.90;;;;;;5039719;28;20236;-93
2021/12/17 11:04:32;;;;;;;9.10;5.33;;;2.70;99.90;;;;;;5039944;28;20212;-93
2021/12/17 11:07:05;;;;;;;6.53;4.47;;;2.70;99.90;;;;;;5038600;28;20296;-95
2021/12/17 11:09:42;;;;;;;8.20;5.47;;;2.80;99.90;;;;;;5040756;28;20221;-93
2021/12/17 11:12:37;;;;;;;7.67;4.97;;;2.80;99.90;;;;;;5040705;28;20243;-95
2021/12/17 11:15:13;;;;;;;11.67;5.17;;;2.80;99.90;;;;;;5039015;28;20654;-96
2021/12/17 11:17:46;;;;;;;11.40;5.27;;;2.90;99.90;;;;;;5040131;28;20215;-96
2021/12/17 11:20:19;;;;;;;9.53;5.20;;;2.90;99.90;;;;;;5041486;28;20212;-94
2021/12/17 11:22:52;;;;;;;9.20;5.03;;;2.90;99.90;;;;;;5041010;28;20225;-95
2021/12/17 11:25:25;;;;;;;8.63;4.93;;;2.80;99.90;;;;;;5041631;28;20219;-94
2021/12/17 11:27:59;;;;;;;8.77;5.73;;;2.80;99.90;;;;;;5021890;28;20202;-95
2021/12/17 11:30:32;;;;;;;7.20;5.00;;;2.80;99.90;;;;;;5022151;28;20696;-95
2021/12/17 11:33:04;;;;;;;9.40;5.27;;;2.80;99.90;;;;;;5034319;28;20229;-93
2021/12/17 11:35:37;;;;;;;6.10;4.37;;;2.80;99.90;;;;;;5038456;28;20271;-94
2021/12/17 11:38:12;;;;;;;6.90;4.87;;;2.70;99.90;;;;;;5035985;28;20206;-93
2021/12/17 11:40:51;;;;;;;6.23;4.37;;;2.80;99.90;;;;;;5029195;28;20210;-93
2021/12/17 11:43:53;;;;;;;6.07;4.27;;;2.80;99.90;;;;;;5047970;28;20652;-95
2021/12/17 11:46:27;;;;;;;6.23;4.30;;;2.70;99.90;;;;;;5044971;28;20220;-94
2021/12/17 11:49:02;;;;;;;5.27;4.23;;;2.70;99.90;;;;;;5045553;28;20216;-95
2021/12/17 11:51:39;;;;;;;5.47;3.80;;;2.70;99.90;;;;;;5042855;28;20259;-94
2021/12/17 11:54:12;;;;;;;7.97;4.40;;;2.70;99.90;;;;;;5043593;28;20271;-94
2021/12/17 11:56:49;;;;;;;12.10;4.20;;;2.70;99.90;;;;;;5042555;28;20201;-94
2021/12/17 11:59:50;;;;;;;14.60;3.70;;;2.70;99.90;;;;;;5045204;28;20531;-92
2021/12/17 12:02:24;;;;;;;16.97;3.63;;;2.60;99.90;;;;;;5043568;28;20291;-93
2021/12/17 12:04:58;;;;;;;14.43;4.17;;;2.60;99.90;;;;;;5044595;28;20205;-94
2021/12/17 12:07:38;;;;;;;13.20;4.00;;;2.60;99.90;;;;;;5042081;28;20215;-94
2021/12/17 12:10:25;;;;;;;24.13;4.43;;;2.60;99.90;;;;;;5043823;28;20274;-95
2021/12/17 12:13:04;;;;;;;21.43;4.23;;;2.60;99.90;;;;;;5042019;28;20212;-93
2021/12/17 12:15:44;;;;;;;54.13;4.63;;;2.60;99.90;;;;;;5042548;28;20236;-96
2021/12/17 12:18:18;;;;;;;23.20;3.80;;;2.50;99.90;;;;;;5043038;28;20213;-96
2021/12/17 12:21:02;;;;;;;11.17;3.77;;;2.50;99.90;;;;;;5045318;28;20276;-94
2021/12/17 12:23:50;;;;;;;45.07;4.60;;;2.50;99.90;;;;;;5046020;28;20212;-94
2021/12/17 12:26:34;;;;;;;50.90;3.87;;;2.40;99.90;;;;;;5048907;28;20219;-96
2021/12/17 12:29:10;;;;;;;86.63;5.30;;;2.40;99.90;;;;;;5049809;28;20274;-95
2021/12/17 12:32:02;;;;;;;25.93;3.57;;;2.40;99.90;;;;;;5055005;28;20242;-96
2021/12/17 12:34:36;;;;;;;35.93;3.40;;;2.30;99.90;;;;;;5055689;28;20250;-94
2021/12/17 12:37:19;;;;;;;20.93;2.90;;;2.30;99.90;;;;;;5053840;28;20223;-94
2021/12/17 12:40:22;;;;;;;7.40;2.40;;;2.30;99.90;;;;;;5041104;28;20212;-95
2021/12/17 12:42:57;;;;;;;15.00;3.17;;;2.30;99.90;;;;;;5037341;28;20252;-94
2021/12/17 12:45:33;;;;;;;7.77;2.47;;;2.20;99.90;;;;;;5037350;28;20252;-94
2021/12/17 12:48:07;;;;;;;19.70;2.90;;;2.20;99.90;;;;;;5037209;28;20330;-95
2021/12/17 12:50:38;;;;;;;12.67;2.50;;;2.20;99.90;;;;;;5037903;28;20232;-94
2021/12/17 12:53:11;;;;;;;16.83;3.13;;;2.20;99.90;;;;;;5037488;28;20259;-95
2021/12/17 12:55:45;;;;;;;46.90;3.47;;;2.20;99.90;;;;;;5037494;28;20639;-95
2021/12/17 12:58:18;;;;;;;23.70;3.10;;;2.30;99.90;;;;;;5067804;22;20720;-94
2021/12/17 13:00:54;;;;;;;30.53;3.60;;;2.30;99.90;;;;;;5037746;28;20229;-95
2021/12/17 13:03:30;;;;;;;8.30;2.57;;;2.20;99.90;;;;;;5037796;28;20287;-95
2021/12/17 13:06:05;;;;;;;26.20;3.07;;;2.20;99.90;;;;;;5036843;28;20236;-94
2021/12/17 13:08:36;;;;;;;15.37;3.20;;;2.20;99.90;;;;;;5036352;28;20559;-94
2021/12/17 13:11:09;;;;;;;15.93;3.10;;;2.20;99.90;;;;;;5038130;28;20215;-93
2021/12/17 13:13:45;;;;;;;65.10;5.13;;;2.20;99.90;;;;;;5038949;28;20209;-94
2021/12/17 13:16:22;;;;;;;19.87;3.83;;;2.20;99.90;;;;;;5037369;28;20267;-94
2021/12/17 13:21:58;;;;;;;42.20;4.07;;;2.30;99.90;;;;;;5018992;28;20244;-95
2021/12/17 13:24:36;;;;;;;44.27;4.70;;;2.30;99.90;;;;;;5018242;28;20316;-95
2021/12/17 13:27:11;;;;;;;86.67;5.23;;;2.30;99.90;;;;;;5016915;28;20232;-94
2021/12/17 13:29:44;;;;;;;11.43;2.97;;;2.20;99.90;;;;;;5018397;28;20237;-95
2021/12/17 13:32:18;;;;;;;55.63;4.57;;;2.20;99.90;;;;;;5048937;28;20228;-95
2021/12/17 13:34:52;;;;;;;22.43;3.47;;;2.30;99.90;;;;;;5044882;28;22159;-95
2021/12/17 13:37:25;;;;;;;53.30;4.10;;;2.30;99.90;;;;;;5037515;28;20235;-94
2021/12/17 13:39:59;;;;;;;81.90;5.20;;;2.30;99.90;;;;;;5037956;28;20283;-95
2021/12/17 13:42:30;;;;;;;112.13;7.23;;;2.20;99.90;;;;;;5068115;22;20235;31
2021/12/17 13:45:02;;;;;;;82.17;6.10;;;2.20;99.90;;;;;;5018540;28;20225;-94
2021/12/17 13:47:35;;;;;;;57.73;4.60;;;2.20;99.90;;;;;;5023829;28;20194;-95
2021/12/17 13:50:15;;;;;;;79.00;6.90;;;2.20;99.90;;;;;;5019810;28;20202;-94
2021/12/17 13:52:53;;;;;;;81.43;5.60;;;2.20;99.90;;;;;;5036066;28;20205;-94
2021/12/17 13:55:25;;;;;;;98.60;5.63;;;2.20;99.90;;;;;;5029240;28;20233;-93
2021/12/17 13:57:58;;;;;;;200.73;11.23;;;2.20;99.90;;;;;;5028252;28;20213;-94
2021/12/17 14:00:33;;;;;;;62.50;4.63;;;2.20;99.90;;;;;;5024041;28;20241;-94
2021/12/17 14:03:06;;;;;;;31.73;4.60;;;2.20;99.90;;;;;;5020988;28;20232;-94
2021/12/17 14:05:45;;;;;;;163.17;8.93;;;2.10;99.90;;;;;;5022419;28;20260;-94
2021/12/17 14:08:18;;;;;;;52.97;5.27;;;2.10;99.90;;;;;;5021041;28;20245;-95
2021/12/17 14:10:49;;;;;;;200.47;8.90;;;2.10;99.90;;;;;;5022862;28;20252;-93
2021/12/17 14:13:22;;;;;;;202.20;10.83;;;2.10;99.90;;;;;;5023367;28;20243;-95
2021/12/17 14:16:08;;;;;;;177.10;11.27;;;2.00;99.90;;;;;;5020822;28;20255;-93
2021/12/17 14:18:40;;;;;;;198.07;9.90;;;2.00;99.90;;;;;;5022614;28;20213;-94
2021/12/17 14:21:13;;;;;;;252.57;11.33;;;2.00;99.90;;;;;;5020736;28;20259;-94
2021/12/17 14:23:44;;;;;;;225.40;11.23;;;2.00;99.90;;;;;;5021063;28;20217;-95
2021/12/17 14:26:15;;;;;;;228.97;9.50;;;2.00;99.90;;;;;;5019784;28;20233;-95
2021/12/17 14:28:47;;;;;;;196.90;7.80;;;2.00;99.90;;;;;;5020692;28;20202;-95
2021/12/17 14:31:18;;;;;;;131.13;6.00;;;2.00;99.90;;;;;;5020356;28;20742;-95
2021/12/17 14:33:51;;;;;;;63.10;4.83;;;2.00;99.90;;;;;;5021377;28;20313;-91
2021/12/17 14:36:30;;;;;;;43.73;4.03;;;1.90;99.90;;;;;;5019704;28;20300;-94
2021/12/17 14:39:08;;;;;;;22.60;3.47;;;1.90;99.90;;;;;;5022988;28;20274;-96
2021/12/17 14:41:50;;;;;;;26.37;2.70;;;1.90;99.90;;;;;;5022103;28;20225;-96
2021/12/17 14:44:36;;;;;;;4.90;2.17;;;1.90;99.90;;;;;;5022628;28;20297;-96
2021/12/17 14:47:16;;;;;;;3.80;2.60;;;1.90;99.90;;;;;;5019265;28;20213;-95
2021/12/17 15:01:34;;;;;;;2.83;1.97;;;1.90;99.90;;;;;;4951986;28;20242;-95
2021/12/17 15:04:06;;;;;;;3.53;2.50;;;1.80;99.90;;;;;;5019522;28;20289;-94
2021/12/17 15:06:38;;;;;;;2.40;2.20;;;1.80;99.90;;;;;;5019445;28;20205;-95
2021/12/17 15:09:11;;;;;;;2.07;1.87;;;1.80;99.90;;;;;;5019371;28;20216;-95
2021/12/17 15:11:42;;;;;;;2.43;1.97;;;1.70;99.90;;;;;;5020804;28;20245;-95
2021/12/17 15:14:13;;;;;;;2.33;2.00;;;1.70;99.90;;;;;;5019865;28;20612;-95
2021/12/17 15:16:46;;;;;;;3.03;2.40;;;1.70;99.90;;;;;;5017603;28;20546;-94
2021/12/17 15:19:17;;;;;;;2.63;2.20;;;1.70;99.90;;;;;;5019644;28;20743;-92
2021/12/17 15:21:48;;;;;;;5.37;2.50;;;1.60;99.90;;;;;;5019736;28;20232;-94
2021/12/17 15:24:41;;;;;;;8.30;2.30;;;1.60;99.90;;;;;;5005570;28;20217;-95
2021/12/17 15:27:13;;;;;;;47.07;4.37;;;1.60;99.90;;;;;;5019020;28;20229;-96
2021/12/17 15:29:44;;;;;;;12.57;2.83;;;1.60;99.90;;;;;;5038503;28;20236;-95
2021/12/17 15:32:16;;;;;;;24.43;2.90;;;1.50;99.90;;;;;;5006145;28;20209;-95
2021/12/17 15:34:47;;;;;;;17.43;2.87;;;1.50;99.90;;;;;;5019437;28;20228;-95
2021/12/17 15:37:18;;;;;;;96.83;5.70;;;1.50;99.90;;;;;;5018828;28;20241;-96
2021/12/17 15:39:50;;;;;;;100.37;4.80;;;1.60;99.90;;;;;;5021702;28;20210;-94
2021/12/17 15:42:21;;;;;;;87.90;5.07;;;1.50;99.90;;;;;;5020991;28;20202;-94
2021/12/17 15:44:53;;;;;;;58.07;4.03;;;1.50;99.90;;;;;;5019663;28;20228;-95
2021/12/17 15:47:25;;;;;;;31.17;3.20;;;1.50;99.90;;;;;;5021859;28;20277;-94
2021/12/17 15:49:57;;;;;;;45.47;3.43;;;1.50;99.90;;;;;;5021505;28;20213;-95
2021/12/17 15:52:33;;;;;;;36.77;3.50;;;1.50;99.90;;;;;;5020228;28;20292;-94
2021/12/17 15:55:07;;;;;;;27.43;3.10;;;1.50;99.90;;;;;;5003414;28;20209;-95
2021/12/17 15:57:41;;;;;;;18.70;3.40;;;1.50;99.90;;;;;;5020465;28;20240;-94
2021/12/17 16:00:17;;;;;;;15.03;2.90;;;1.50;99.90;;;;;;5021056;28;20244;-94
2021/12/17 16:02:48;;;;;;;16.10;3.20;;;1.50;99.90;;;;;;5024035;28;20253;-94
2021/12/17 16:05:24;;;;;;;9.57;2.63;;;1.50;99.90;;;;;;5008261;28;20221;-95
2021/12/17 16:07:57;;;;;;;4.10;2.73;;;1.50;99.90;;;;;;5022856;28;20269;-93